createdAt,value
2018-04-10T00:00:17.574Z,30.60
2018-04-10T00:02:45.979Z,27.90
2018-04-10T00:05:15.236Z,26.43
2018-04-10T00:07:43.648Z,26.87
2018-04-10T00:10:12.041Z,30.93
2018-04-10T00:12:41.218Z,29.97
2018-04-10T00:15:09.625Z,27.87
2018-04-10T00:17:38.012Z,29.00
2018-04-10T00:20:06.412Z,29.73
2018-04-10T00:22:34.812Z,26.33
2018-04-10T00:25:03.212Z,28.30
2018-04-10T00:27:31.607Z,29.13
2018-04-10T00:30:00.773Z,21.50
2018-04-10T00:32:29.165Z,26.30
2018-04-10T00:34:57.573Z,28.90
2018-04-10T00:37:25.971Z,28.90
2018-04-10T00:39:54.373Z,27.80
2018-04-10T00:42:22.768Z,25.60
2018-04-10T00:44:51.193Z,25.10
2018-04-10T00:47:19.584Z,22.30
2018-04-10T00:49:49.135Z,23.50
2018-04-10T00:52:17.516Z,23.67
2018-04-10T00:54:46.733Z,16.97
2018-04-10T00:57:15.892Z,23.67
2018-04-10T00:59:44.285Z,22.47
2018-04-10T01:02:13.702Z,21.97
2018-04-10T01:04:42.942Z,23.90
2018-04-10T01:07:11.342Z,17.93
2018-04-10T01:09:40.873Z,19.40
2018-04-10T01:12:09.274Z,14.80
2018-04-10T01:14:38.431Z,13.37
2018-04-10T01:17:06.831Z,21.07
2018-04-10T01:19:35.222Z,21.60
2018-04-10T01:22:04.394Z,21.17
2018-04-10T01:24:32.780Z,21.73
2018-04-10T01:27:01.194Z,21.27
2018-04-10T01:29:29.591Z,21.77
2018-04-10T01:31:57.990Z,19.13
2018-04-10T01:34:26.397Z,23.30
2018-04-10T01:36:54.798Z,19.77
2018-04-10T01:39:23.961Z,22.60
2018-04-10T01:41:52.376Z,22.10
2018-04-10T01:44:21.560Z,20.13
2018-04-10T01:46:50.741Z,20.60
2018-04-10T01:49:19.124Z,22.60
2018-04-10T01:51:47.523Z,21.10
2018-04-10T01:54:16.699Z,24.00
2018-04-10T01:56:45.103Z,21.60
2018-04-10T01:59:14.262Z,23.17
2018-04-10T02:01:42.646Z,21.17
2018-04-10T02:04:11.058Z,20.47
2018-04-10T02:06:40.205Z,21.13
2018-04-10T02:09:08.617Z,22.03
2018-04-10T02:11:37.774Z,21.70
2018-04-10T02:14:06.168Z,19.27
2018-04-10T02:16:34.326Z,18.20
2018-04-10T02:19:02.742Z,22.53
2018-04-10T02:21:31.897Z,18.97
2018-04-10T02:24:00.310Z,17.83
2018-04-10T02:26:29.472Z,19.70
2018-04-10T02:28:57.876Z,17.60
2018-04-10T02:31:26.275Z,19.70
2018-04-10T02:33:55.441Z,18.00
2018-04-10T02:36:23.829Z,20.03
2018-04-10T02:38:52.273Z,19.80
2018-04-10T02:41:20.665Z,18.63
2018-04-10T02:43:49.053Z,17.40
2018-04-10T02:46:17.466Z,17.27
2018-04-10T02:48:46.050Z,18.77
2018-04-10T02:51:15.223Z,18.30
2018-04-10T02:53:43.605Z,16.40
2018-04-10T02:56:12.436Z,18.13
2018-04-10T02:58:40.833Z,18.70
2018-04-10T03:01:09.233Z,16.53
2018-04-10T03:03:37.654Z,14.63
2018-04-10T03:06:06.810Z,14.73
2018-04-10T03:08:35.204Z,13.30
2018-04-10T03:11:03.608Z,12.50
2018-04-10T03:13:32.782Z,14.10
2018-04-10T03:16:01.197Z,13.87
2018-04-10T03:18:29.582Z,14.90
2018-04-10T03:20:57.998Z,15.33
2018-04-10T03:23:26.388Z,14.07
2018-04-10T03:25:54.773Z,14.30
2018-04-10T03:28:23.176Z,11.60
2018-04-10T03:30:52.331Z,14.80
2018-04-10T03:33:20.732Z,14.40
2018-04-10T03:35:49.124Z,14.00
2018-04-10T03:38:18.309Z,11.67
2018-04-10T03:40:46.705Z,12.87
2018-04-10T03:43:15.873Z,10.63
2018-04-10T03:45:44.276Z,8.57
2018-04-10T03:48:13.451Z,8.00
2018-04-10T03:50:42.059Z,9.03
2018-04-10T03:53:11.248Z,8.37
2018-04-10T03:55:40.453Z,8.70
2018-04-10T03:58:09.008Z,11.10
2018-04-10T04:00:37.393Z,7.80
2018-04-10T04:03:05.795Z,7.40
2018-04-10T04:05:34.961Z,6.50
2018-04-10T04:08:03.369Z,8.53
2018-04-10T04:10:32.286Z,7.27
2018-04-10T04:13:00.704Z,9.37
2018-04-10T04:15:29.097Z,9.43
2018-04-10T04:17:57.493Z,10.43
2018-04-10T04:20:37.877Z,7.87
2018-04-10T04:23:06.521Z,8.83
2018-04-10T04:25:34.920Z,9.63
2018-04-10T04:28:03.750Z,9.00
2018-04-10T04:30:32.156Z,9.20
2018-04-10T04:33:00.549Z,8.37
2018-04-10T04:35:29.728Z,10.30
2018-04-10T04:37:58.117Z,9.53
2018-04-10T04:40:26.517Z,9.10
2018-04-10T04:42:55.434Z,9.10
2018-04-10T04:45:23.837Z,7.80
2018-04-10T04:47:52.225Z,8.93
2018-04-10T04:50:20.626Z,8.63
2018-04-10T04:52:49.009Z,8.50
2018-04-10T04:55:18.178Z,8.60
2018-04-10T04:57:46.558Z,9.37
2018-04-10T05:00:14.964Z,8.03
2018-04-10T05:02:44.197Z,8.30
2018-04-10T05:05:12.461Z,6.50
2018-04-10T05:07:40.869Z,7.30
2018-04-10T05:10:09.267Z,6.20
2018-04-10T05:12:37.703Z,7.10
2018-04-10T05:15:06.089Z,6.93
2018-04-10T05:17:34.493Z,7.30
2018-04-10T05:20:02.901Z,7.13
2018-04-10T05:22:31.515Z,8.07
2018-04-10T05:24:59.961Z,6.57
2018-04-10T05:27:28.138Z,6.60
2018-04-10T05:29:56.553Z,7.07
2018-04-10T05:32:25.884Z,6.50
2018-04-10T05:34:54.281Z,7.27
2018-04-10T05:37:22.672Z,6.00
2018-04-10T05:39:51.854Z,6.50
2018-04-10T05:42:20.261Z,6.63
2018-04-10T05:44:49.434Z,6.00
2018-04-10T05:47:17.829Z,6.53
2018-04-10T05:49:46.987Z,6.60
2018-04-10T05:52:15.384Z,8.40
2018-04-10T05:54:43.787Z,5.20
2018-04-10T05:57:12.745Z,5.13
2018-04-10T05:59:41.144Z,5.50
2018-04-10T06:02:09.589Z,4.27
2018-04-10T06:04:37.997Z,4.67
2018-04-10T06:07:06.389Z,4.77
2018-04-10T06:09:35.562Z,4.23
2018-04-10T06:12:03.948Z,3.70
2018-04-10T06:14:32.145Z,5.40
2018-04-10T06:17:01.293Z,4.00
2018-04-10T06:19:29.691Z,4.93
2018-04-10T06:21:58.090Z,5.33
2018-04-10T06:24:26.503Z,3.40
2018-04-10T06:26:54.892Z,3.77
2018-04-10T06:29:23.425Z,3.50
2018-04-10T06:31:51.820Z,4.00
2018-04-10T06:34:21.252Z,3.70
2018-04-10T06:36:49.636Z,2.87
2018-04-10T06:39:18.019Z,2.90
2018-04-10T06:41:46.427Z,2.80
2018-04-10T06:44:14.820Z,3.07
2018-04-10T06:46:43.229Z,4.33
2018-04-10T06:49:12.749Z,2.47
2018-04-10T06:51:41.156Z,2.80
2018-04-10T06:54:10.552Z,2.07
2018-04-10T06:56:40.102Z,2.30
2018-04-10T06:59:09.540Z,3.40
2018-04-10T07:01:46.847Z,2.67
2018-04-10T07:04:16.250Z,2.33
2018-04-10T07:06:45.425Z,3.57
2018-04-10T07:09:14.613Z,2.50
2018-04-10T07:11:43.035Z,2.83
2018-04-10T07:14:11.417Z,2.93
2018-04-10T07:16:39.822Z,2.77
2018-04-10T07:19:08.980Z,2.50
2018-04-10T07:21:37.373Z,2.70
2018-04-10T07:24:05.754Z,2.23
2018-04-10T07:26:34.153Z,2.70
2018-04-10T07:29:03.304Z,2.30
2018-04-10T07:31:31.466Z,1.60
2018-04-10T07:33:59.882Z,2.57
2018-04-10T07:36:28.473Z,2.70
2018-04-10T07:38:56.864Z,1.27
2018-04-10T07:41:26.026Z,2.53
2018-04-10T07:43:54.472Z,2.13
2018-04-10T07:46:22.924Z,2.90
2018-04-10T07:48:52.139Z,3.03
2018-04-10T07:51:20.336Z,2.63
2018-04-10T07:53:49.654Z,3.10
2018-04-10T07:56:18.109Z,2.50
2018-04-10T07:58:46.497Z,2.80
2018-04-10T08:01:14.914Z,2.53
2018-04-10T08:03:43.311Z,2.77
2018-04-10T08:06:12.468Z,2.90
2018-04-10T08:08:41.075Z,14.37
2018-04-10T08:11:09.456Z,4.00
2018-04-10T08:13:38.625Z,3.80
2018-04-10T08:16:07.037Z,3.13
2018-04-10T08:18:35.469Z,3.83
2018-04-10T08:21:03.853Z,3.00
2018-04-10T08:23:32.253Z,3.27
2018-04-10T08:26:00.652Z,4.73
2018-04-10T08:28:29.886Z,3.53
2018-04-10T08:30:58.283Z,3.60
2018-04-10T08:33:26.685Z,4.23
2018-04-10T08:35:55.369Z,3.00
2018-04-10T08:38:23.758Z,3.73
2018-04-10T08:40:52.162Z,4.03
2018-04-10T08:43:20.336Z,3.63
2018-04-10T08:45:49.584Z,4.27
2018-04-10T08:48:18.065Z,3.70
2018-04-10T08:50:46.125Z,3.63
2018-04-10T08:53:14.533Z,4.83
2018-04-10T08:55:42.955Z,3.50
2018-04-10T08:58:11.347Z,3.40
2018-04-10T09:00:39.749Z,2.90
2018-04-10T09:03:08.141Z,2.80
2018-04-10T09:05:36.525Z,3.40
2018-04-10T09:08:04.921Z,2.80
2018-04-10T09:10:34.090Z,2.90
2018-04-10T09:13:02.493Z,2.90
2018-04-10T09:15:31.651Z,3.30
2018-04-10T09:18:00.147Z,2.70
2018-04-10T09:20:31.862Z,3.20
2018-04-10T09:23:01.780Z,3.80
2018-04-10T09:25:30.176Z,4.87
2018-04-10T09:27:58.637Z,4.77
2018-04-10T09:30:27.022Z,3.77
2018-04-10T09:32:55.472Z,4.20
2018-04-10T09:35:24.398Z,4.03
2018-04-10T09:37:52.837Z,4.60
2018-04-10T09:40:22.002Z,5.03
2018-04-10T09:42:50.392Z,4.67
2018-04-10T09:45:18.890Z,6.50
2018-04-10T09:47:48.053Z,4.80
2018-04-10T09:50:16.129Z,4.40
2018-04-10T09:52:44.715Z,2.77
2018-04-10T09:55:13.098Z,3.07
2018-04-10T09:57:41.499Z,4.00
2018-04-10T10:00:10.421Z,3.53
2018-04-10T10:02:38.883Z,2.70
2018-04-10T10:05:07.285Z,3.73
2018-04-10T10:07:35.665Z,3.27
2018-04-10T10:10:03.752Z,3.13
2018-04-10T10:12:32.169Z,3.50
2018-04-10T10:15:01.117Z,3.20
2018-04-10T10:17:29.519Z,2.80
2018-04-10T10:19:59.027Z,3.27
2018-04-10T10:22:27.599Z,3.90
2018-04-10T10:24:56.387Z,3.60
2018-04-10T10:27:24.865Z,2.67
2018-04-10T10:29:53.273Z,2.70
2018-04-10T10:32:22.436Z,3.70
2018-04-10T10:34:50.890Z,4.03
2018-04-10T10:37:19.296Z,3.70
2018-04-10T10:39:47.679Z,3.30
2018-04-10T10:42:16.813Z,3.07
2018-04-10T10:44:45.993Z,4.07
2018-04-10T10:47:14.644Z,3.10
2018-04-10T10:49:43.141Z,3.53
2018-04-10T10:52:11.541Z,3.67
2018-04-10T10:54:40.745Z,4.53
2018-04-10T10:57:09.916Z,3.87
2018-04-10T10:59:38.356Z,3.40
2018-04-10T11:02:06.764Z,4.43
2018-04-10T11:04:35.209Z,3.40
2018-04-10T11:07:03.661Z,3.83
2018-04-10T11:09:32.063Z,3.63
2018-04-10T11:12:01.401Z,4.43
2018-04-10T11:14:29.807Z,4.13
2018-04-10T11:16:58.400Z,4.20
2018-04-10T11:19:27.557Z,3.80
2018-04-10T11:21:56.001Z,4.57
2018-04-10T11:24:24.469Z,4.43
2018-04-10T11:26:52.898Z,4.37
2018-04-10T11:29:21.298Z,5.17
2018-04-10T11:31:49.697Z,5.47
2018-04-10T11:34:18.863Z,5.37
2018-04-10T11:36:47.254Z,4.60
2018-04-10T11:39:15.658Z,4.80
2018-04-10T11:41:44.066Z,4.70
2018-04-10T11:44:12.471Z,5.70
2018-04-10T11:46:40.876Z,5.30
2018-04-10T11:49:10.034Z,6.30
2018-04-10T11:51:38.451Z,4.83
2018-04-10T11:54:07.644Z,5.80
2018-04-10T11:56:36.051Z,5.30
2018-04-10T11:59:04.459Z,4.50
2018-04-10T12:01:32.851Z,5.60
2018-04-10T12:04:01.335Z,5.43
2018-04-10T12:06:30.499Z,5.13
2018-04-10T12:08:58.901Z,5.10
2018-04-10T12:11:27.325Z,5.60
2018-04-10T12:13:57.689Z,5.00
2018-04-10T12:16:26.086Z,5.33
2018-04-10T12:18:54.925Z,5.70
2018-04-10T12:21:24.098Z,6.30
2018-04-10T12:23:53.256Z,6.40
2018-04-10T12:26:21.654Z,6.60
2018-04-10T12:28:50.053Z,5.37
2018-04-10T12:31:18.461Z,5.20
2018-04-10T12:33:46.849Z,4.87
2018-04-10T12:36:15.243Z,4.67
2018-04-10T12:38:43.628Z,5.70
2018-04-10T12:41:12.029Z,4.63
2018-04-10T12:43:40.401Z,4.27
2018-04-10T12:46:08.823Z,4.00
2018-04-10T12:48:37.997Z,5.10
2018-04-10T12:51:06.047Z,3.80
2018-04-10T12:53:34.442Z,5.20
2018-04-10T12:56:02.874Z,4.57
2018-04-10T12:58:31.408Z,5.83
2018-04-10T13:01:00.597Z,4.90
2018-04-10T13:03:29.067Z,5.10
2018-04-10T13:05:57.465Z,4.70
2018-04-10T13:08:26.694Z,4.30
2018-04-10T13:10:55.184Z,4.33
2018-04-10T13:13:23.578Z,4.40
2018-04-10T13:15:51.748Z,5.63
2018-04-10T13:18:20.126Z,6.10
2018-04-10T13:20:49.539Z,5.10
2018-04-10T13:23:18.932Z,4.57
2018-04-10T13:25:48.332Z,5.10
2018-04-10T13:28:18.490Z,4.60
2018-04-10T13:30:50.194Z,4.97
2018-04-10T13:33:19.605Z,5.13
2018-04-10T13:35:49.363Z,5.13
2018-04-10T13:38:18.761Z,5.07
2018-04-10T13:40:47.938Z,5.30
2018-04-10T13:43:17.356Z,4.00
2018-04-10T13:45:47.677Z,5.40
2018-04-10T13:48:17.147Z,4.73
2018-04-10T13:50:46.687Z,3.40
2018-04-10T13:53:16.084Z,4.90
2018-04-10T13:55:45.490Z,4.20
2018-04-10T13:58:13.897Z,4.67
2018-04-10T14:00:43.047Z,4.33
2018-04-10T14:03:11.450Z,5.40
2018-04-10T14:05:39.850Z,5.10
2018-04-10T14:08:08.796Z,4.67
2018-04-10T14:10:36.960Z,5.13
2018-04-10T14:13:05.341Z,4.87
2018-04-10T14:15:33.792Z,5.00
2018-04-10T14:18:02.207Z,5.10
2018-04-10T14:20:30.790Z,4.90
2018-04-10T14:22:59.191Z,5.13
2018-04-10T14:25:27.392Z,5.10
2018-04-10T14:27:56.418Z,5.70
2018-04-10T14:30:24.739Z,4.40
2018-04-10T14:32:53.156Z,5.70
2018-04-10T14:35:21.306Z,5.10
2018-04-10T14:37:50.486Z,4.90
2018-04-10T14:40:18.637Z,4.80
2018-04-10T14:42:47.034Z,5.77
2018-04-10T14:45:15.428Z,4.80
2018-04-10T14:47:44.585Z,4.30
2018-04-10T14:50:12.975Z,4.30
2018-04-10T14:52:40.824Z,4.50
2018-04-10T14:55:08.981Z,4.90
2018-04-10T14:57:37.151Z,5.00
2018-04-10T15:00:04.880Z,4.13
2018-04-10T15:02:33.316Z,5.07
2018-04-10T15:05:02.190Z,4.03
2018-04-10T15:07:30.573Z,3.77
2018-04-10T15:09:58.973Z,3.90
2018-04-10T15:12:27.357Z,3.53
2018-04-10T15:14:55.756Z,3.57
2018-04-10T15:17:24.916Z,3.30
2018-04-10T15:19:53.374Z,3.47
2018-04-10T15:22:21.754Z,3.07
2018-04-10T15:24:50.141Z,3.10
2018-04-10T15:27:19.892Z,3.40
2018-04-10T15:29:48.327Z,2.37
2018-04-10T15:32:16.719Z,2.50
2018-04-10T15:34:45.102Z,3.00
2018-04-10T15:37:13.533Z,2.97
2018-04-10T15:39:41.914Z,3.07
2018-04-10T15:42:10.078Z,3.20
2018-04-10T15:44:38.479Z,3.27
2018-04-10T15:47:06.931Z,3.43
2018-04-10T15:49:36.086Z,3.00
2018-04-10T15:52:04.156Z,2.40
2018-04-10T15:54:32.546Z,4.03
2018-04-10T15:57:00.924Z,2.93
2018-04-10T15:59:29.324Z,2.73
2018-04-10T16:01:58.137Z,3.03
2018-04-10T16:04:26.548Z,2.67
2018-04-10T16:06:55.014Z,2.83
2018-04-10T16:09:23.439Z,3.30
2018-04-10T16:11:51.841Z,3.23
2018-04-10T16:14:20.850Z,3.07
2018-04-10T16:16:49.231Z,3.23
2018-04-10T16:19:16.950Z,3.30
2018-04-10T16:21:45.359Z,3.40
2018-04-10T16:29:28.004Z,2.87
2018-04-10T16:31:57.147Z,3.30
2018-04-10T16:34:25.550Z,3.33
2018-04-10T16:36:53.937Z,2.90
2018-04-10T16:39:23.105Z,3.30
2018-04-10T16:41:51.502Z,3.07
2018-04-10T16:44:19.896Z,2.50
2018-04-10T16:46:49.060Z,4.20
2018-04-10T16:49:17.457Z,3.70
2018-04-10T16:51:45.854Z,3.97
2018-04-10T16:54:15.034Z,4.00
2018-04-10T16:56:46.620Z,4.87
2018-04-10T16:59:14.778Z,3.90
2018-04-10T17:01:43.929Z,4.47
2018-04-10T17:04:12.330Z,3.20
2018-04-10T17:06:41.618Z,4.23
2018-04-10T17:09:10.079Z,4.33
2018-04-10T17:11:38.449Z,4.67
2018-04-10T17:14:07.167Z,3.20
2018-04-10T17:16:36.302Z,4.30
2018-04-10T17:19:04.687Z,4.07
2018-04-10T17:21:32.841Z,5.20
2018-04-10T17:24:01.768Z,4.27
2018-04-10T17:26:29.949Z,4.93
2018-04-10T17:28:59.117Z,4.57
2018-04-10T17:31:28.458Z,4.53
2018-04-10T17:33:56.612Z,4.70
2018-04-10T17:36:24.994Z,4.07
2018-04-10T17:38:53.395Z,3.93
2018-04-10T17:41:23.117Z,3.57
2018-04-10T17:43:51.296Z,4.53
2018-04-10T17:46:19.473Z,3.47
2018-04-10T17:48:48.041Z,4.43
2018-04-10T17:51:16.459Z,4.73
2018-04-10T17:53:44.609Z,3.93
2018-04-10T17:56:13.780Z,4.77
2018-04-10T17:58:42.165Z,4.97
2018-04-10T18:01:10.573Z,4.50
2018-04-10T18:03:39.747Z,3.90
2018-04-10T18:06:08.369Z,3.90
2018-04-10T18:08:36.758Z,3.57
2018-04-10T18:11:05.148Z,4.47
2018-04-10T18:13:33.531Z,4.00
2018-04-10T18:16:02.172Z,4.23
2018-04-10T18:18:30.669Z,4.20
2018-04-10T18:21:00.062Z,4.70
2018-04-10T18:23:28.475Z,3.77
2018-04-10T18:25:56.858Z,4.17
2018-04-10T18:28:25.263Z,4.17
2018-04-10T18:30:53.772Z,4.47
2018-04-10T18:33:22.925Z,4.50
2018-04-10T18:35:51.334Z,4.90
2018-04-10T18:38:20.549Z,5.07
2018-04-10T18:40:49.779Z,4.90
2018-04-10T18:43:18.255Z,4.70
2018-04-10T18:45:47.680Z,5.60
2018-04-10T18:48:17.101Z,4.70
2018-04-10T18:50:46.508Z,5.30
2018-04-10T18:53:15.981Z,5.23
2018-04-10T18:55:45.390Z,4.53
2018-04-10T18:58:14.907Z,4.43
2018-04-10T19:00:44.518Z,4.83
2018-04-10T19:03:13.935Z,4.30
2018-04-10T19:05:43.338Z,4.03
2018-04-10T19:08:15.308Z,5.03
2018-04-10T19:10:48.613Z,4.53
2018-04-10T19:13:19.187Z,3.90
2018-04-10T19:15:47.582Z,4.33
2018-04-10T19:18:17.361Z,5.30
2018-04-10T19:20:47.207Z,5.60
2018-04-10T19:23:15.838Z,5.00
2018-04-10T19:25:45.513Z,4.27
2018-04-10T19:28:13.913Z,4.33
2018-04-10T19:30:43.302Z,4.20
2018-04-10T19:33:12.729Z,5.10
2018-04-10T19:35:42.125Z,5.27
2018-04-10T19:38:11.542Z,4.13
2018-04-10T19:40:40.943Z,5.80
2018-04-10T19:43:10.381Z,4.63
2018-04-10T19:45:39.853Z,4.30
2018-04-10T19:48:09.296Z,2.70
2018-04-10T19:50:40.233Z,5.27
2018-04-10T19:53:09.636Z,3.00
2018-04-10T19:55:41.219Z,3.00
2018-04-10T19:58:15.099Z,1.90
2018-04-10T20:00:45.684Z,2.53
2018-04-10T20:03:21.008Z,2.07
2018-04-10T20:05:54.278Z,1.87
2018-04-10T20:08:27.520Z,1.97
2018-04-10T20:11:02.395Z,2.03
2018-04-10T20:13:39.552Z,1.70
2018-04-10T20:16:13.345Z,1.50
2018-04-10T20:18:46.345Z,2.07
2018-04-10T20:21:20.108Z,1.70
2018-04-10T20:23:50.672Z,1.73
2018-04-10T20:26:23.257Z,2.53
2018-04-10T20:29:02.041Z,1.60
2018-04-10T20:31:32.815Z,1.70
2018-04-10T20:34:05.871Z,1.80
2018-04-10T20:36:41.553Z,2.13
2018-04-10T20:39:28.386Z,1.70
2018-04-10T20:42:06.536Z,1.47
2018-04-10T20:44:40.857Z,1.30
2018-04-10T20:47:18.276Z,1.77
2018-04-10T20:49:50.438Z,1.60
2018-04-10T20:52:24.091Z,1.30
2018-04-10T20:54:56.363Z,1.37
2018-04-10T20:57:24.769Z,1.20
2018-04-10T21:00:01.558Z,0.83
2018-04-10T21:02:38.337Z,1.00
2018-04-10T21:05:11.004Z,1.20
2018-04-10T21:07:46.779Z,1.10
2018-04-10T21:10:23.040Z,0.90
2018-04-10T21:13:00.796Z,1.50
2018-04-10T21:15:35.020Z,1.00
2018-04-10T21:18:07.508Z,1.30
2018-04-10T21:20:39.812Z,0.97
2018-04-10T21:23:12.138Z,1.20
2018-04-10T21:25:44.023Z,1.40
2018-04-10T21:28:16.490Z,1.20
2018-04-10T21:30:50.679Z,1.17
2018-04-10T21:33:22.935Z,1.17
2018-04-10T21:35:52.404Z,1.20
2018-04-10T21:38:24.186Z,1.40
2018-04-10T21:40:56.375Z,0.90
2018-04-10T21:43:29.917Z,1.10
2018-04-10T21:46:02.825Z,1.70
2018-04-10T21:48:35.091Z,1.20
2018-04-10T21:51:07.216Z,1.53
2018-04-10T21:53:41.573Z,1.13
2018-04-10T21:56:13.832Z,1.57
2018-04-10T21:58:49.061Z,1.33
2018-04-10T22:01:21.428Z,1.50
2018-04-10T22:03:55.213Z,1.37
2018-04-10T22:06:27.025Z,1.07
2018-04-10T22:08:59.180Z,1.30
2018-04-10T22:11:32.344Z,1.10
2018-04-10T22:14:05.106Z,1.20
2018-04-10T22:16:37.773Z,1.27
2018-04-10T22:19:11.662Z,1.30
2018-04-10T22:21:42.010Z,1.50
2018-04-10T22:24:16.856Z,1.20
2018-04-10T22:26:51.708Z,1.50
2018-04-10T22:29:24.476Z,1.77
2018-04-10T22:31:59.789Z,1.63
2018-04-10T22:34:33.757Z,1.27
2018-04-10T22:37:05.995Z,1.50
2018-04-10T22:39:40.522Z,1.47
2018-04-10T22:42:12.360Z,1.30
2018-04-10T22:44:45.249Z,1.80
2018-04-10T22:47:17.459Z,1.90
2018-04-10T22:49:48.872Z,1.47
2018-04-10T22:52:20.995Z,1.87
2018-04-10T22:54:53.252Z,1.60
2018-04-10T22:57:28.571Z,1.57
2018-04-10T23:00:03.591Z,1.60
2018-04-10T23:02:35.560Z,1.73
2018-04-10T23:05:04.978Z,1.70
2018-04-10T23:07:41.921Z,1.40
2018-04-10T23:10:12.053Z,2.20
2018-04-10T23:12:46.066Z,2.67
2018-04-10T23:15:15.438Z,1.80
2018-04-10T23:17:46.547Z,1.87
2018-04-10T23:20:18.501Z,1.73
2018-04-10T23:22:47.902Z,1.80
2018-04-10T23:25:18.721Z,1.83
2018-04-10T23:27:49.311Z,1.97
2018-04-10T23:30:24.190Z,1.63
2018-04-10T23:32:55.017Z,2.13
2018-04-10T23:35:26.581Z,1.53
2018-04-10T23:38:10.253Z,1.53
2018-04-10T23:40:46.656Z,1.63
2018-04-10T23:43:19.126Z,1.67
2018-04-10T23:45:56.821Z,2.03
2018-04-10T23:48:29.660Z,2.20
2018-04-10T23:50:59.093Z,1.97
2018-04-10T23:53:37.398Z,1.60
2018-04-10T23:56:10.614Z,2.00
2018-04-10T23:58:43.472Z,1.67
